sensor_id;sensor_type;location;lat;lon;timestamp;P1;durP1;ratioP1;P2;durP2;ratioP2
56013;SDS011;41893;55.868;37.632;2022-09-09T00:01:15;6.55;;;4.10;;
56013;SDS011;41893;55.868;37.632;2022-09-09T00:04:00;4.32;;;4.00;;
56013;SDS011;41893;55.868;37.632;2022-09-09T00:06:42;9.70;;;4.72;;
56013;SDS011;41893;55.868;37.632;2022-09-09T00:09:12;9.20;;;4.25;;
56013;SDS011;41893;55.868;37.632;2022-09-09T00:11:49;12.05;;;4.63;;
56013;SDS011;41893;55.868;37.632;2022-09-09T00:17:01;14.25;;;3.70;;
56013;SDS011;41893;55.868;37.632;2022-09-09T00:19:33;3.92;;;3.70;;
56013;SDS011;41893;55.868;37.632;2022-09-09T00:22:16;4.47;;;3.97;;
56013;SDS011;41893;55.868;37.632;2022-09-09T00:24:54;4.80;;;4.07;;
56013;SDS011;41893;55.868;37.632;2022-09-09T00:27:31;4.72;;;4.35;;
56013;SDS011;41893;55.868;37.632;2022-09-09T00:32:46;7.97;;;3.63;;
56013;SDS011;41893;55.868;37.632;2022-09-09T00:37:41;8.30;;;4.72;;
56013;SDS011;41893;55.868;37.632;2022-09-09T00:40:23;6.32;;;4.00;;
56013;SDS011;41893;55.868;37.632;2022-09-09T00:43:06;7.22;;;4.57;;
56013;SDS011;41893;55.868;37.632;2022-09-09T00:48:34;6.70;;;4.85;;
56013;SDS011;41893;55.868;37.632;2022-09-09T00:54:28;5.82;;;4.22;;
56013;SDS011;41893;55.868;37.632;2022-09-09T01:11:07;16.60;;;4.95;;
56013;SDS011;41893;55.868;37.632;2022-09-09T01:13:41;13.07;;;4.75;;
56013;SDS011;41893;55.868;37.632;2022-09-09T01:16:12;4.97;;;4.50;;
56013;SDS011;41893;55.868;37.632;2022-09-09T01:18:44;8.88;;;4.60;;
56013;SDS011;41893;55.868;37.632;2022-09-09T01:26:52;12.63;;;3.92;;
56013;SDS011;41893;55.868;37.632;2022-09-09T01:29:25;4.55;;;3.95;;
56013;SDS011;41893;55.868;37.632;2022-09-09T01:31:52;5.97;;;4.38;;
56013;SDS011;41893;55.868;37.632;2022-09-09T01:34:20;6.78;;;4.25;;
56013;SDS011;41893;55.868;37.632;2022-09-09T01:39:13;13.50;;;5.20;;
56013;SDS011;41893;55.868;37.632;2022-09-09T01:41:40;9.50;;;3.97;;
56013;SDS011;41893;55.868;37.632;2022-09-09T01:44:09;10.25;;;4.18;;
56013;SDS011;41893;55.868;37.632;2022-09-09T01:46:38;7.60;;;3.83;;
56013;SDS011;41893;55.868;37.632;2022-09-09T01:49:08;6.97;;;4.05;;
56013;SDS011;41893;55.868;37.632;2022-09-09T01:51:35;5.90;;;3.88;;
56013;SDS011;41893;55.868;37.632;2022-09-09T01:54:08;12.40;;;5.03;;
56013;SDS011;41893;55.868;37.632;2022-09-09T02:09:09;6.32;;;4.32;;
56013;SDS011;41893;55.868;37.632;2022-09-09T02:11:39;8.18;;;4.82;;
56013;SDS011;41893;55.868;37.632;2022-09-09T02:14:22;6.47;;;4.20;;
56013;SDS011;41893;55.868;37.632;2022-09-09T02:16:58;6.68;;;4.55;;
56013;SDS011;41893;55.868;37.632;2022-09-09T02:19:48;6.90;;;4.80;;
56013;SDS011;41893;55.868;37.632;2022-09-09T02:22:29;6.80;;;4.15;;
56013;SDS011;41893;55.868;37.632;2022-09-09T02:25:00;8.10;;;3.58;;
56013;SDS011;41893;55.868;37.632;2022-09-09T02:27:29;11.32;;;6.00;;
56013;SDS011;41893;55.868;37.632;2022-09-09T02:29:55;6.15;;;4.68;;
56013;SDS011;41893;55.868;37.632;2022-09-09T02:32:40;9.80;;;4.88;;
56013;SDS011;41893;55.868;37.632;2022-09-09T02:35:12;15.00;;;5.30;;
56013;SDS011;41893;55.868;37.632;2022-09-09T02:37:42;12.98;;;5.05;;
56013;SDS011;41893;55.868;37.632;2022-09-09T02:40:12;6.13;;;4.75;;
56013;SDS011;41893;55.868;37.632;2022-09-09T02:42:47;8.02;;;5.30;;
56013;SDS011;41893;55.868;37.632;2022-09-09T02:45:17;8.15;;;5.35;;
56013;SDS011;41893;55.868;37.632;2022-09-09T02:53:29;16.77;;;5.55;;
56013;SDS011;41893;55.868;37.632;2022-09-09T02:56:11;11.50;;;4.85;;
56013;SDS011;41893;55.868;37.632;2022-09-09T02:58:44;11.38;;;4.90;;
56013;SDS011;41893;55.868;37.632;2022-09-09T03:01:11;7.80;;;4.97;;
56013;SDS011;41893;55.868;37.632;2022-09-09T03:03:37;14.18;;;4.55;;
56013;SDS011;41893;55.868;37.632;2022-09-09T03:06:08;6.80;;;4.70;;
56013;SDS011;41893;55.868;37.632;2022-09-09T03:08:35;21.02;;;6.25;;
56013;SDS011;41893;55.868;37.632;2022-09-09T03:11:01;15.25;;;6.47;;
56013;SDS011;41893;55.868;37.632;2022-09-09T03:13:29;13.23;;;5.47;;
56013;SDS011;41893;55.868;37.632;2022-09-09T03:15:55;11.75;;;5.63;;
56013;SDS011;41893;55.868;37.632;2022-09-09T03:18:21;10.02;;;5.35;;
56013;SDS011;41893;55.868;37.632;2022-09-09T03:20:50;24.05;;;6.90;;
56013;SDS011;41893;55.868;37.632;2022-09-09T03:23:18;11.20;;;5.53;;
56013;SDS011;41893;55.868;37.632;2022-09-09T03:25:51;8.77;;;5.00;;
56013;SDS011;41893;55.868;37.632;2022-09-09T03:28:23;15.52;;;5.40;;
56013;SDS011;41893;55.868;37.632;2022-09-09T03:30:50;14.27;;;5.00;;
56013;SDS011;41893;55.868;37.632;2022-09-09T03:33:16;7.80;;;4.82;;
56013;SDS011;41893;55.868;37.632;2022-09-09T03:35:45;7.65;;;5.75;;
56013;SDS011;41893;55.868;37.632;2022-09-09T03:38:16;6.38;;;4.22;;
56013;SDS011;41893;55.868;37.632;2022-09-09T03:40:49;9.43;;;5.80;;
56013;SDS011;41893;55.868;37.632;2022-09-09T03:43:17;17.75;;;5.03;;
56013;SDS011;41893;55.868;37.632;2022-09-09T03:45:46;12.27;;;4.53;;
56013;SDS011;41893;55.868;37.632;2022-09-09T03:50:45;9.35;;;4.15;;
56013;SDS011;41893;55.868;37.632;2022-09-09T03:53:11;6.15;;;4.05;;
56013;SDS011;41893;55.868;37.632;2022-09-09T03:55:37;15.73;;;5.30;;
56013;SDS011;41893;55.868;37.632;2022-09-09T03:58:02;15.02;;;6.18;;
56013;SDS011;41893;55.868;37.632;2022-09-09T04:00:29;12.32;;;5.40;;
56013;SDS011;41893;55.868;37.632;2022-09-09T04:02:56;9.38;;;4.60;;
56013;SDS011;41893;55.868;37.632;2022-09-09T04:05:22;11.90;;;4.75;;
56013;SDS011;41893;55.868;37.632;2022-09-09T04:07:48;11.20;;;5.40;;
56013;SDS011;41893;55.868;37.632;2022-09-09T04:10:14;12.60;;;4.70;;
56013;SDS011;41893;55.868;37.632;2022-09-09T04:12:41;14.82;;;6.90;;
56013;SDS011;41893;55.868;37.632;2022-09-09T04:15:07;8.45;;;5.47;;
56013;SDS011;41893;55.868;37.632;2022-09-09T04:17:35;17.50;;;4.68;;
56013;SDS011;41893;55.868;37.632;2022-09-09T04:20:02;5.75;;;4.00;;
56013;SDS011;41893;55.868;37.632;2022-09-09T04:22:29;4.78;;;4.05;;
56013;SDS011;41893;55.868;37.632;2022-09-09T04:24:56;6.40;;;3.90;;
56013;SDS011;41893;55.868;37.632;2022-09-09T04:27:22;13.02;;;4.57;;
56013;SDS011;41893;55.868;37.632;2022-09-09T04:29:47;16.33;;;4.35;;
56013;SDS011;41893;55.868;37.632;2022-09-09T04:32:13;12.45;;;4.15;;
56013;SDS011;41893;55.868;37.632;2022-09-09T04:34:39;16.33;;;4.35;;
56013;SDS011;41893;55.868;37.632;2022-09-09T04:37:08;21.20;;;5.05;;
56013;SDS011;41893;55.868;37.632;2022-09-09T04:39:34;7.18;;;4.22;;
56013;SDS011;41893;55.868;37.632;2022-09-09T04:42:00;4.00;;;3.67;;
56013;SDS011;41893;55.868;37.632;2022-09-09T04:44:26;20.65;;;5.97;;
56013;SDS011;41893;55.868;37.632;2022-09-09T04:46:52;9.65;;;3.90;;
56013;SDS011;41893;55.868;37.632;2022-09-09T04:49:18;8.77;;;3.70;;
56013;SDS011;41893;55.868;37.632;2022-09-09T04:51:43;13.38;;;4.35;;
56013;SDS011;41893;55.868;37.632;2022-09-09T04:54:09;5.65;;;4.32;;
56013;SDS011;41893;55.868;37.632;2022-09-09T04:56:38;4.53;;;3.50;;
56013;SDS011;41893;55.868;37.632;2022-09-09T04:59:04;10.38;;;4.47;;
56013;SDS011;41893;55.868;37.632;2022-09-09T05:01:39;5.07;;;3.45;;
56013;SDS011;41893;55.868;37.632;2022-09-09T05:04:06;8.90;;;3.30;;
56013;SDS011;41893;55.868;37.632;2022-09-09T05:06:33;4.82;;;3.10;;
56013;SDS011;41893;55.868;37.632;2022-09-09T05:09:01;5.53;;;2.95;;
56013;SDS011;41893;55.868;37.632;2022-09-09T05:11:29;6.47;;;3.30;;
56013;SDS011;41893;55.868;37.632;2022-09-09T05:14:08;5.65;;;3.60;;
56013;SDS011;41893;55.868;37.632;2022-09-09T05:16:36;12.82;;;3.60;;
56013;SDS011;41893;55.868;37.632;2022-09-09T05:19:03;14.85;;;3.17;;
56013;SDS011;41893;55.868;37.632;2022-09-09T05:21:39;5.03;;;2.85;;
56013;SDS011;41893;55.868;37.632;2022-09-09T05:24:07;9.32;;;2.78;;
56013;SDS011;41893;55.868;37.632;2022-09-09T05:26:33;14.55;;;3.47;;
56013;SDS011;41893;55.868;37.632;2022-09-09T05:29:00;4.70;;;2.65;;
56013;SDS011;41893;55.868;37.632;2022-09-09T05:31:29;3.47;;;2.30;;
56013;SDS011;41893;55.868;37.632;2022-09-09T05:33:56;2.30;;;2.20;;
56013;SDS011;41893;55.868;37.632;2022-09-09T05:36:22;2.95;;;2.75;;
56013;SDS011;41893;55.868;37.632;2022-09-09T05:38:52;8.05;;;3.05;;
56013;SDS011;41893;55.868;37.632;2022-09-09T05:41:19;14.85;;;2.95;;
56013;SDS011;41893;55.868;37.632;2022-09-09T05:43:46;23.38;;;3.40;;
56013;SDS011;41893;55.868;37.632;2022-09-09T05:46:15;23.27;;;5.38;;
56013;SDS011;41893;55.868;37.632;2022-09-09T05:48:47;12.07;;;3.55;;
56013;SDS011;41893;55.868;37.632;2022-09-09T05:51:19;4.90;;;3.25;;
56013;SDS011;41893;55.868;37.632;2022-09-09T05:53:51;11.20;;;2.20;;
56013;SDS011;41893;55.868;37.632;2022-09-09T05:56:18;10.15;;;2.50;;
56013;SDS011;41893;55.868;37.632;2022-09-09T05:58:51;2.13;;;1.70;;
56013;SDS011;41893;55.868;37.632;2022-09-09T06:01:20;4.00;;;1.60;;
56013;SDS011;41893;55.868;37.632;2022-09-09T06:03:48;7.07;;;2.05;;
56013;SDS011;41893;55.868;37.632;2022-09-09T06:06:25;4.75;;;2.25;;
56013;SDS011;41893;55.868;37.632;2022-09-09T06:08:54;21.58;;;2.58;;
56013;SDS011;41893;55.868;37.632;2022-09-09T06:11:25;9.40;;;2.47;;
56013;SDS011;41893;55.868;37.632;2022-09-09T06:13:53;5.82;;;2.17;;
56013;SDS011;41893;55.868;37.632;2022-09-09T06:16:24;18.15;;;2.80;;
56013;SDS011;41893;55.868;37.632;2022-09-09T06:18:52;7.68;;;2.65;;
56013;SDS011;41893;55.868;37.632;2022-09-09T06:21:21;6.30;;;2.38;;
56013;SDS011;41893;55.868;37.632;2022-09-09T06:23:49;7.68;;;1.80;;
56013;SDS011;41893;55.868;37.632;2022-09-09T06:26:23;11.90;;;2.28;;
56013;SDS011;41893;55.868;37.632;2022-09-09T06:28:55;13.18;;;2.28;;
56013;SDS011;41893;55.868;37.632;2022-09-09T06:31:24;9.40;;;2.30;;
56013;SDS011;41893;55.868;37.632;2022-09-09T06:33:53;8.38;;;2.40;;
56013;SDS011;41893;55.868;37.632;2022-09-09T06:36:22;9.45;;;2.40;;
56013;SDS011;41893;55.868;37.632;2022-09-09T06:38:51;5.60;;;2.38;;
56013;SDS011;41893;55.868;37.632;2022-09-09T06:41:18;8.13;;;2.08;;
56013;SDS011;41893;55.868;37.632;2022-09-09T06:43:45;10.30;;;1.85;;
56013;SDS011;41893;55.868;37.632;2022-09-09T06:46:19;7.22;;;1.63;;
56013;SDS011;41893;55.868;37.632;2022-09-09T06:48:53;9.25;;;2.15;;
56013;SDS011;41893;55.868;37.632;2022-09-09T06:51:26;10.47;;;2.07;;
56013;SDS011;41893;55.868;37.632;2022-09-09T06:53:54;8.68;;;2.22;;
56013;SDS011;41893;55.868;37.632;2022-09-09T06:56:30;7.75;;;2.20;;
56013;SDS011;41893;55.868;37.632;2022-09-09T06:59:09;8.77;;;1.80;;
56013;SDS011;41893;55.868;37.632;2022-09-09T07:01:37;2.15;;;1.75;;
56013;SDS011;41893;55.868;37.632;2022-09-09T07:04:09;8.30;;;1.80;;
56013;SDS011;41893;55.868;37.632;2022-09-09T07:06:40;1.80;;;1.70;;
56013;SDS011;41893;55.868;37.632;2022-09-09T07:09:11;2.38;;;1.58;;
56013;SDS011;41893;55.868;37.632;2022-09-09T07:11:44;1.15;;;1.05;;
56013;SDS011;41893;55.868;37.632;2022-09-09T07:14:12;2.38;;;1.30;;
56013;SDS011;41893;55.868;37.632;2022-09-09T07:16:43;3.47;;;1.92;;
56013;SDS011;41893;55.868;37.632;2022-09-09T07:19:10;3.13;;;1.70;;
56013;SDS011;41893;55.868;37.632;2022-09-09T07:21:37;11.45;;;1.65;;
56013;SDS011;41893;55.868;37.632;2022-09-09T07:24:03;8.00;;;3.55;;
56013;SDS011;41893;55.868;37.632;2022-09-09T07:26:32;6.07;;;1.25;;
56013;SDS011;41893;55.868;37.632;2022-09-09T07:29:00;13.18;;;2.60;;
56013;SDS011;41893;55.868;37.632;2022-09-09T07:31:28;2.97;;;1.23;;
56013;SDS011;41893;55.868;37.632;2022-09-09T07:34:00;4.88;;;1.80;;
56013;SDS011;41893;55.868;37.632;2022-09-09T07:36:27;1.48;;;1.20;;
56013;SDS011;41893;55.868;37.632;2022-09-09T07:38:56;42.25;;;1.83;;
56013;SDS011;41893;55.868;37.632;2022-09-09T07:41:35;2.35;;;1.00;;
56013;SDS011;41893;55.868;37.632;2022-09-09T07:44:04;8.43;;;1.60;;
56013;SDS011;41893;55.868;37.632;2022-09-09T07:46:32;2.45;;;1.42;;
56013;SDS011;41893;55.868;37.632;2022-09-09T07:49:00;6.88;;;1.23;;
56013;SDS011;41893;55.868;37.632;2022-09-09T07:51:29;6.65;;;1.67;;
56013;SDS011;41893;55.868;37.632;2022-09-09T07:54:01;0.98;;;0.73;;
56013;SDS011;41893;55.868;37.632;2022-09-09T07:56:30;8.02;;;1.52;;
56013;SDS011;41893;55.868;37.632;2022-09-09T07:58:57;19.05;;;1.05;;
56013;SDS011;41893;55.868;37.632;2022-09-09T08:01:26;4.85;;;1.33;;
56013;SDS011;41893;55.868;37.632;2022-09-09T08:03:56;3.90;;;1.70;;
56013;SDS011;41893;55.868;37.632;2022-09-09T08:06:24;2.83;;;1.23;;
56013;SDS011;41893;55.868;37.632;2022-09-09T08:08:52;2.30;;;0.88;;
56013;SDS011;41893;55.868;37.632;2022-09-09T08:11:22;12.68;;;1.77;;
56013;SDS011;41893;55.868;37.632;2022-09-09T08:13:49;5.60;;;1.40;;
56013;SDS011;41893;55.868;37.632;2022-09-09T08:16:18;14.02;;;1.38;;
56013;SDS011;41893;55.868;37.632;2022-09-09T08:18:51;8.23;;;2.22;;
56013;SDS011;41893;55.868;37.632;2022-09-09T08:21:19;3.17;;;1.02;;
56013;SDS011;41893;55.868;37.632;2022-09-09T08:23:50;1.85;;;1.48;;
56013;SDS011;41893;55.868;37.632;2022-09-09T08:26:19;15.85;;;2.47;;
56013;SDS011;41893;55.868;37.632;2022-09-09T08:28:53;9.73;;;2.00;;
56013;SDS011;41893;55.868;37.632;2022-09-09T08:31:23;3.15;;;1.17;;
56013;SDS011;41893;55.868;37.632;2022-09-09T08:33:51;7.40;;;1.20;;
56013;SDS011;41893;55.868;37.632;2022-09-09T08:36:18;2.50;;;1.20;;
56013;SDS011;41893;55.868;37.632;2022-09-09T08:38:50;2.50;;;0.73;;
56013;SDS011;41893;55.868;37.632;2022-09-09T08:54:57;2.17;;;1.05;;
56013;SDS011;41893;55.868;37.632;2022-09-09T08:57:29;7.55;;;1.55;;
56013;SDS011;41893;55.868;37.632;2022-09-09T08:59:58;4.70;;;1.33;;
56013;SDS011;41893;55.868;37.632;2022-09-09T09:02:38;2.08;;;0.90;;
56013;SDS011;41893;55.868;37.632;2022-09-09T09:10:46;4.45;;;1.00;;
56013;SDS011;41893;55.868;37.632;2022-09-09T09:15:52;0.90;;;0.88;;
56013;SDS011;41893;55.868;37.632;2022-09-09T09:18:22;0.55;;;0.55;;
56013;SDS011;41893;55.868;37.632;2022-09-09T09:23:29;7.53;;;0.93;;
56013;SDS011;41893;55.868;37.632;2022-09-09T09:26:06;28.35;;;1.05;;
56013;SDS011;41893;55.868;37.632;2022-09-09T09:28:35;3.65;;;1.55;;
56013;SDS011;41893;55.868;37.632;2022-09-09T09:31:09;7.30;;;2.60;;
56013;SDS011;41893;55.868;37.632;2022-09-09T09:33:50;7.72;;;1.63;;
56013;SDS011;41893;55.868;37.632;2022-09-09T09:36:20;0.80;;;0.60;;
56013;SDS011;41893;55.868;37.632;2022-09-09T09:38:53;4.75;;;1.48;;
56013;SDS011;41893;55.868;37.632;2022-09-09T09:43:57;4.03;;;1.13;;
56013;SDS011;41893;55.868;37.632;2022-09-09T09:46:24;3.13;;;1.92;;
56013;SDS011;41893;55.868;37.632;2022-09-09T09:48:58;2.05;;;1.20;;
56013;SDS011;41893;55.868;37.632;2022-09-09T09:51:29;8.65;;;1.48;;
56013;SDS011;41893;55.868;37.632;2022-09-09T09:57:07;1.27;;;0.90;;
56013;SDS011;41893;55.868;37.632;2022-09-09T09:59:35;2.35;;;0.98;;
56013;SDS011;41893;55.868;37.632;2022-09-09T10:05:03;3.60;;;2.10;;
56013;SDS011;41893;55.868;37.632;2022-09-09T10:07:33;3.60;;;0.80;;
56013;SDS011;41893;55.868;37.632;2022-09-09T10:09:59;4.10;;;0.80;;
56013;SDS011;41893;55.868;37.632;2022-09-09T10:15:46;5.40;;;1.00;;
56013;SDS011;41893;55.868;37.632;2022-09-09T10:32:38;8.82;;;1.63;;
56013;SDS011;41893;55.868;37.632;2022-09-09T10:40:43;1.95;;;1.50;;
56013;SDS011;41893;55.868;37.632;2022-09-09T10:54:43;10.80;;;1.23;;
56013;SDS011;41893;55.868;37.632;2022-09-09T11:00:17;13.10;;;1.45;;
56013;SDS011;41893;55.868;37.632;2022-09-09T11:02:49;14.13;;;1.48;;
56013;SDS011;41893;55.868;37.632;2022-09-09T11:08:19;10.63;;;1.63;;
56013;SDS011;41893;55.868;37.632;2022-09-09T11:13:26;17.10;;;1.85;;
56013;SDS011;41893;55.868;37.632;2022-09-09T11:16:04;5.15;;;1.45;;
56013;SDS011;41893;55.868;37.632;2022-09-09T11:18:41;9.63;;;1.33;;
56013;SDS011;41893;55.868;37.632;2022-09-09T11:21:32;13.75;;;1.80;;
56013;SDS011;41893;55.868;37.632;2022-09-09T11:24:26;5.70;;;1.67;;
56013;SDS011;41893;55.868;37.632;2022-09-09T11:27:00;2.95;;;1.17;;
56013;SDS011;41893;55.868;37.632;2022-09-09T11:29:44;1.15;;;1.10;;
56013;SDS011;41893;55.868;37.632;2022-09-09T11:40:28;2.90;;;1.30;;
56013;SDS011;41893;55.868;37.632;2022-09-09T11:43:01;4.28;;;1.05;;
56013;SDS011;41893;55.868;37.632;2022-09-09T11:45:40;5.78;;;1.30;;
56013;SDS011;41893;55.868;37.632;2022-09-09T11:48:22;4.13;;;1.30;;
56013;SDS011;41893;55.868;37.632;2022-09-09T11:50:59;5.30;;;1.23;;
56013;SDS011;41893;55.868;37.632;2022-09-09T11:53:33;7.47;;;1.35;;
56013;SDS011;41893;55.868;37.632;2022-09-09T11:56:01;10.77;;;1.73;;
56013;SDS011;41893;55.868;37.632;2022-09-09T11:59:23;3.35;;;1.50;;
56013;SDS011;41893;55.868;37.632;2022-09-09T12:02:01;5.80;;;1.80;;
56013;SDS011;41893;55.868;37.632;2022-09-09T12:04:38;1.80;;;1.58;;
56013;SDS011;41893;55.868;37.632;2022-09-09T12:12:28;3.88;;;2.00;;
56013;SDS011;41893;55.868;37.632;2022-09-09T12:17:43;6.03;;;1.63;;
56013;SDS011;41893;55.868;37.632;2022-09-09T12:20:15;3.35;;;0.95;;
56013;SDS011;41893;55.868;37.632;2022-09-09T12:28:37;1.73;;;1.08;;
56013;SDS011;41893;55.868;37.632;2022-09-09T12:31:08;1.55;;;1.45;;
56013;SDS011;41893;55.868;37.632;2022-09-09T12:33:43;5.00;;;1.20;;
56013;SDS011;41893;55.868;37.632;2022-09-09T12:36:22;15.23;;;6.57;;
56013;SDS011;41893;55.868;37.632;2022-09-09T12:38:55;5.00;;;1.65;;
56013;SDS011;41893;55.868;37.632;2022-09-09T12:41:26;10.35;;;1.60;;
56013;SDS011;41893;55.868;37.632;2022-09-09T12:44:06;3.97;;;1.20;;
56013;SDS011;41893;55.868;37.632;2022-09-09T12:46:36;9.13;;;1.75;;
56013;SDS011;41893;55.868;37.632;2022-09-09T12:49:27;11.27;;;2.08;;
56013;SDS011;41893;55.868;37.632;2022-09-09T12:51:54;15.38;;;1.80;;
56013;SDS011;41893;55.868;37.632;2022-09-09T12:54:22;2.55;;;1.90;;
56013;SDS011;41893;55.868;37.632;2022-09-09T12:56:48;4.03;;;1.80;;
56013;SDS011;41893;55.868;37.632;2022-09-09T12:59:25;13.15;;;2.15;;
56013;SDS011;41893;55.868;37.632;2022-09-09T13:02:02;10.30;;;1.83;;
56013;SDS011;41893;55.868;37.632;2022-09-09T13:04:28;13.43;;;2.03;;
56013;SDS011;41893;55.868;37.632;2022-09-09T13:06:53;4.32;;;1.52;;
56013;SDS011;41893;55.868;37.632;2022-09-09T13:09:30;4.63;;;1.33;;
56013;SDS011;41893;55.868;37.632;2022-09-09T13:11:57;10.80;;;1.75;;
56013;SDS011;41893;55.868;37.632;2022-09-09T13:14:30;1.83;;;1.73;;
56013;SDS011;41893;55.868;37.632;2022-09-09T13:17:01;10.20;;;2.45;;
56013;SDS011;41893;55.868;37.632;2022-09-09T13:19:29;1.40;;;1.05;;
56013;SDS011;41893;55.868;37.632;2022-09-09T13:21:59;1.17;;;0.98;;
56013;SDS011;41893;55.868;37.632;2022-09-09T13:24:26;5.75;;;2.15;;
56013;SDS011;41893;55.868;37.632;2022-09-09T13:26:58;3.58;;;1.90;;
56013;SDS011;41893;55.868;37.632;2022-09-09T13:29:29;0.98;;;0.98;;
56013;SDS011;41893;55.868;37.632;2022-09-09T13:34:59;12.10;;;1.95;;
56013;SDS011;41893;55.868;37.632;2022-09-09T13:37:36;6.75;;;3.80;;
56013;SDS011;41893;55.868;37.632;2022-09-09T13:40:04;8.07;;;2.22;;
56013;SDS011;41893;55.868;37.632;2022-09-09T13:42:32;2.35;;;1.10;;
56013;SDS011;41893;55.868;37.632;2022-09-09T13:45:03;10.25;;;1.67;;
56013;SDS011;41893;55.868;37.632;2022-09-09T13:47:35;4.18;;;1.58;;
56013;SDS011;41893;55.868;37.632;2022-09-09T13:50:18;2.85;;;1.70;;
56013;SDS011;41893;55.868;37.632;2022-09-09T13:52:47;5.45;;;1.08;;
56013;SDS011;41893;55.868;37.632;2022-09-09T13:55:19;3.25;;;1.35;;
56013;SDS011;41893;55.868;37.632;2022-09-09T13:57:50;1.15;;;0.73;;
56013;SDS011;41893;55.868;37.632;2022-09-09T14:00:20;6.30;;;1.33;;
56013;SDS011;41893;55.868;37.632;2022-09-09T14:02:47;6.70;;;1.23;;
56013;SDS011;41893;55.868;37.632;2022-09-09T14:05:14;9.85;;;1.20;;
56013;SDS011;41893;55.868;37.632;2022-09-09T14:07:41;2.45;;;1.20;;
56013;SDS011;41893;55.868;37.632;2022-09-09T14:10:08;6.18;;;1.08;;
56013;SDS011;41893;55.868;37.632;2022-09-09T14:12:34;4.68;;;1.25;;
56013;SDS011;41893;55.868;37.632;2022-09-09T14:15:02;7.03;;;1.40;;
56013;SDS011;41893;55.868;37.632;2022-09-09T14:17:29;3.55;;;1.50;;
56013;SDS011;41893;55.868;37.632;2022-09-09T14:19:55;3.35;;;1.50;;
56013;SDS011;41893;55.868;37.632;2022-09-09T14:22:21;2.80;;;1.73;;
56013;SDS011;41893;55.868;37.632;2022-09-09T14:24:47;9.63;;;4.15;;
56013;SDS011;41893;55.868;37.632;2022-09-09T14:27:13;3.67;;;1.65;;
56013;SDS011;41893;55.868;37.632;2022-09-09T14:29:39;13.10;;;1.90;;
56013;SDS011;41893;55.868;37.632;2022-09-09T14:32:05;3.80;;;1.73;;
56013;SDS011;41893;55.868;37.632;2022-09-09T14:34:31;5.43;;;2.10;;
56013;SDS011;41893;55.868;37.632;2022-09-09T14:37:00;4.50;;;1.73;;
56013;SDS011;41893;55.868;37.632;2022-09-09T14:39:26;4.90;;;2.42;;
56013;SDS011;41893;55.868;37.632;2022-09-09T14:41:52;8.20;;;3.85;;
56013;SDS011;41893;55.868;37.632;2022-09-09T14:44:18;3.20;;;2.28;;
56013;SDS011;41893;55.868;37.632;2022-09-09T14:46:44;5.95;;;1.33;;
56013;SDS011;41893;55.868;37.632;2022-09-09T14:49:10;14.38;;;1.80;;
56013;SDS011;41893;55.868;37.632;2022-09-09T14:51:36;6.47;;;1.80;;
56013;SDS011;41893;55.868;37.632;2022-09-09T14:54:02;3.60;;;1.80;;
56013;SDS011;41893;55.868;37.632;2022-09-09T14:56:29;4.43;;;1.63;;
56013;SDS011;41893;55.868;37.632;2022-09-09T14:58:57;11.40;;;1.83;;
56013;SDS011;41893;55.868;37.632;2022-09-09T15:01:26;3.67;;;2.00;;
56013;SDS011;41893;55.868;37.632;2022-09-09T15:03:59;7.65;;;1.70;;
56013;SDS011;41893;55.868;37.632;2022-09-09T15:06:26;1.98;;;1.30;;
56013;SDS011;41893;55.868;37.632;2022-09-09T15:08:58;12.57;;;2.05;;
56013;SDS011;41893;55.868;37.632;2022-09-09T15:11:28;2.95;;;2.53;;
56013;SDS011;41893;55.868;37.632;2022-09-09T15:13:55;8.57;;;2.55;;
56013;SDS011;41893;55.868;37.632;2022-09-09T15:16:24;8.50;;;3.75;;
56013;SDS011;41893;55.868;37.632;2022-09-09T15:18:54;9.35;;;6.85;;
56013;SDS011;41893;55.868;37.632;2022-09-09T15:21:22;10.40;;;3.70;;
56013;SDS011;41893;55.868;37.632;2022-09-09T15:23:50;4.50;;;3.28;;
56013;SDS011;41893;55.868;37.632;2022-09-09T15:26:16;12.15;;;2.90;;
56013;SDS011;41893;55.868;37.632;2022-09-09T15:28:43;7.78;;;3.33;;
56013;SDS011;41893;55.868;37.632;2022-09-09T15:31:11;11.10;;;3.58;;
56013;SDS011;41893;55.868;37.632;2022-09-09T15:34:05;9.75;;;3.70;;
56013;SDS011;41893;55.868;37.632;2022-09-09T15:36:39;18.48;;;4.32;;
56013;SDS011;41893;55.868;37.632;2022-09-09T15:39:08;22.38;;;4.22;;
56013;SDS011;41893;55.868;37.632;2022-09-09T15:41:44;13.45;;;4.03;;
56013;SDS011;41893;55.868;37.632;2022-09-09T15:44:12;10.52;;;4.20;;
56013;SDS011;41893;55.868;37.632;2022-09-09T15:46:39;16.42;;;3.95;;
56013;SDS011;41893;55.868;37.632;2022-09-09T15:49:07;12.45;;;4.28;;
56013;SDS011;41893;55.868;37.632;2022-09-09T15:51:34;9.35;;;3.95;;
56013;SDS011;41893;55.868;37.632;2022-09-09T15:54:01;16.80;;;4.18;;
56013;SDS011;41893;55.868;37.632;2022-09-09T15:56:27;15.27;;;4.05;;
56013;SDS011;41893;55.868;37.632;2022-09-09T15:58:56;17.63;;;4.80;;
56013;SDS011;41893;55.868;37.632;2022-09-09T16:01:23;13.80;;;4.53;;
56013;SDS011;41893;55.868;37.632;2022-09-09T16:03:49;25.95;;;5.68;;
56013;SDS011;41893;55.868;37.632;2022-09-09T16:06:17;22.75;;;5.10;;
56013;SDS011;41893;55.868;37.632;2022-09-09T16:08:47;86.72;;;5.70;;
56013;SDS011;41893;55.868;37.632;2022-09-09T16:11:28;16.67;;;5.40;;
56013;SDS011;41893;55.868;37.632;2022-09-09T16:14:00;12.38;;;5.35;;
56013;SDS011;41893;55.868;37.632;2022-09-09T16:16:28;12.23;;;5.05;;
56013;SDS011;41893;55.868;37.632;2022-09-09T16:18:59;9.30;;;4.65;;
56013;SDS011;41893;55.868;37.632;2022-09-09T16:21:31;15.30;;;7.78;;
56013;SDS011;41893;55.868;37.632;2022-09-09T16:24:03;20.80;;;7.22;;
56013;SDS011;41893;55.868;37.632;2022-09-09T16:26:34;28.75;;;7.13;;
56013;SDS011;41893;55.868;37.632;2022-09-09T16:29:02;11.30;;;5.00;;
56013;SDS011;41893;55.868;37.632;2022-09-09T16:31:30;34.83;;;5.07;;
56013;SDS011;41893;55.868;37.632;2022-09-09T16:33:59;21.38;;;5.72;;
56013;SDS011;41893;55.868;37.632;2022-09-09T16:36:27;5.55;;;4.75;;
56013;SDS011;41893;55.868;37.632;2022-09-09T16:38:56;34.00;;;6.80;;
56013;SDS011;41893;55.868;37.632;2022-09-09T16:41:24;34.20;;;5.80;;
56013;SDS011;41893;55.868;37.632;2022-09-09T16:43:57;20.83;;;6.30;;
56013;SDS011;41893;55.868;37.632;2022-09-09T16:46:25;21.65;;;6.80;;
56013;SDS011;41893;55.868;37.632;2022-09-09T16:48:53;25.77;;;6.55;;
56013;SDS011;41893;55.868;37.632;2022-09-09T16:51:22;17.27;;;7.20;;
56013;SDS011;41893;55.868;37.632;2022-09-09T16:53:50;26.73;;;6.18;;
56013;SDS011;41893;55.868;37.632;2022-09-09T16:56:18;15.00;;;6.47;;
56013;SDS011;41893;55.868;37.632;2022-09-09T16:58:52;29.15;;;12.52;;
56013;SDS011;41893;55.868;37.632;2022-09-09T17:01:24;21.17;;;7.82;;
56013;SDS011;41893;55.868;37.632;2022-09-09T17:03:57;29.70;;;9.48;;
56013;SDS011;41893;55.868;37.632;2022-09-09T17:06:26;51.53;;;11.52;;
56013;SDS011;41893;55.868;37.632;2022-09-09T17:08:54;22.65;;;8.52;;
56013;SDS011;41893;55.868;37.632;2022-09-09T17:11:22;24.95;;;7.95;;
56013;SDS011;41893;55.868;37.632;2022-09-09T17:13:49;43.75;;;7.85;;
56013;SDS011;41893;55.868;37.632;2022-09-09T17:16:16;28.35;;;10.73;;
56013;SDS011;41893;55.868;37.632;2022-09-09T17:18:46;20.13;;;8.02;;
56013;SDS011;41893;55.868;37.632;2022-09-09T17:21:14;22.17;;;10.32;;
56013;SDS011;41893;55.868;37.632;2022-09-09T17:23:42;39.70;;;8.50;;
56013;SDS011;41893;55.868;37.632;2022-09-09T17:26:09;43.05;;;9.43;;